Time;durP1;ratioP1;P1;durP2;ratioP2;P2;SDS_P1;SDS_P2;PMS_P1;PMS_P2;Temp;Humidity;BMP_temperature;BMP_pressure;BME280_temperature;BME280_humidity;BME280_pressure;Samples;Min_cycle;Max_cycle;Signal;HPM_P1;HPM_P2
2023/04/17 00:01:06;;;;;;;;;;;;;;;;;;5093489;28;19915;-66
2023/04/17 00:03:32;;;;;;;;;;;;;;;;;;5093037;28;20008;-66
2023/04/17 00:05:58;;;;;;;;;;;;;;;;;;5075413;28;19912;-66
2023/04/17 00:08:25;;;;;;;;;;;;;;;;;;5093411;28;19912;-66
2023/04/17 00:10:51;;;;;;;;;;;;;;;;;;5092941;28;20003;-66
2023/04/17 00:13:16;;;;;;;;;;;;;;;;;;5093645;28;19939;-66
2023/04/17 00:15:43;;;;;;;;;;;;;;;;;;5094872;28;20408;-66
2023/04/17 00:18:08;;;;;;;;;;;;;;;;;;5096831;28;20002;-66
2023/04/17 00:20:34;;;;;;;;;;;;;;;;;;5097209;28;19955;-66
2023/04/17 00:23:01;;;;;;;;;;;;;;;;;;5097186;28;19912;-66
2023/04/17 00:25:27;;;;;;;;;;;;;;;;;;5096700;28;19908;-66
2023/04/17 00:27:53;;;;;;;;;;;;;;;;;;5097075;28;19915;-66
2023/04/17 00:30:19;;;;;;;;;;;;;;;;;;5097426;28;19920;-66
2023/04/17 00:32:45;;;;;;;;;;;;;;;;;;5096623;28;20383;-66
2023/04/17 00:35:11;;;;;;;;;;;;;;;;;;5096885;28;19912;-66
2023/04/17 00:37:37;;;;;;;;;;;;;;;;;;5096963;28;19916;-66
2023/04/17 00:40:03;;;;;;;;;;;;;;;;;;5096368;28;20295;-66
2023/04/17 00:42:29;;;;;;;;;;;;;;;;;;5096750;28;20280;-66
2023/04/17 00:44:54;;;;;;;;;;;;;;;;;;5096366;28;19999;-66
2023/04/17 00:47:21;;;;;;;;;;;;;;;;;;5096617;28;19981;-67
2023/04/17 00:49:47;;;;;;;;;;;;;;;;;;5096591;28;19920;-66
2023/04/17 00:52:13;;;;;;;;;;;;;;;;;;5096130;28;19961;-66
2023/04/17 00:54:39;;;;;;;;;;;;;;;;;;5096715;28;19908;-66
2023/04/17 00:57:05;;;;;;;;;;;;;;;;;;5096516;28;19908;-66
2023/04/17 00:59:31;;;;;;;;;;;;;;;;;;5096045;28;20023;-66
2023/04/17 01:01:57;;;;;;;;;;;;;;;;;;5096488;28;19908;-66
2023/04/17 01:04:23;;;;;;;;;;;;;;;;;;5078114;28;19931;-66
2023/04/17 01:06:49;;;;;;;;;;;;;;;;;;5095854;28;19973;-66
2023/04/17 01:09:15;;;;;;;;;;;;;;;;;;5096100;28;19923;-66
2023/04/17 01:11:41;;;;;;;;;;;;;;;;;;5096225;28;19935;-66
2023/04/17 01:14:07;;;;;;;;;;;;;;;;;;5095645;28;20368;-66
2023/04/17 01:16:34;;;;;;;;;;;;;;;;;;5096263;28;19935;-66
2023/04/17 01:19:00;;;;;;;;;;;;;;;;;;5096056;28;19963;-65
2023/04/17 01:21:26;;;;;;;;;;;;;;;;;;5095556;28;19944;-66
2023/04/17 01:23:52;;;;;;;;;;;;;;;;;;5077750;28;19908;-65
2023/04/17 01:26:18;;;;;;;;;;;;;;;;;;5095739;28;20280;-65
2023/04/17 01:28:44;;;;;;;;;;;;;;;;;;5095340;28;19920;-65
2023/04/17 01:31:10;;;;;;;;;;;;;;;;;;5077635;28;19940;-65
2023/04/17 01:33:36;;;;;;;;;;;;;;;;;;5095776;28;19916;-66
2023/04/17 01:36:02;;;;;;;;;;;;;;;;;;5095317;28;19939;-65
2023/04/17 01:38:28;;;;;;;;;;;;;;;;;;5077534;28;19916;-65
2023/04/17 01:40:55;;;;;;;;;;;;;;;;;;5095642;28;19908;-65
2023/04/17 01:43:20;;;;;;;;;;;;;;;;;;5095172;28;19919;-66
2023/04/17 01:45:46;;;;;;;;;;;;;;;;;;5095473;28;19909;-65
2023/04/17 01:48:12;;;;;;;;;;;;;;;;;;5095094;28;19919;-66
2023/04/17 01:50:38;;;;;;;;;;;;;;;;;;5095429;28;19957;-65
2023/04/17 01:53:04;;;;;;;;;;;;;;;;;;5095419;28;19908;-65
2023/04/17 01:55:30;;;;;;;;;;;;;;;;;;5094950;28;19908;-65
2023/04/17 01:57:56;;;;;;;;;;;;;;;;;;5095263;28;20015;-65
2023/04/17 02:00:22;;;;;;;;;;;;;;;;;;5095204;28;19917;-65
2023/04/17 02:02:48;;;;;;;;;;;;;;;;;;5094868;28;19912;-65
2023/04/17 02:05:14;;;;;;;;;;;;;;;;;;5095014;28;19908;-65
2023/04/17 02:07:40;;;;;;;;;;;;;;;;;;5095326;28;19908;-65
2023/04/17 02:10:06;;;;;;;;;;;;;;;;;;5076392;28;20019;-65
2023/04/17 02:12:32;;;;;;;;;;;;;;;;;;5095186;28;19908;-65
2023/04/17 02:14:59;;;;;;;;;;;;;;;;;;5094972;28;19909;-65
2023/04/17 02:17:26;;;;;;;;;;;;;;;;;;5094428;28;20365;-65
2023/04/17 02:19:52;;;;;;;;;;;;;;;;;;5094943;28;19908;-65
2023/04/17 02:22:18;;;;;;;;;;;;;;;;;;5094804;28;19908;-65
2023/04/17 02:24:44;;;;;;;;;;;;;;;;;;5094377;28;20014;-65
2023/04/17 02:27:10;;;;;;;;;;;;;;;;;;5094716;28;19908;-65
2023/04/17 02:29:36;;;;;;;;;;;;;;;;;;5094453;28;19923;-65
2023/04/17 02:32:02;;;;;;;;;;;;;;;;;;5094212;28;19908;-65
2023/04/17 02:34:28;;;;;;;;;;;;;;;;;;5094805;28;20391;-66
2023/04/17 02:36:54;;;;;;;;;;;;;;;;;;5094458;28;19908;-65
2023/04/17 02:39:20;;;;;;;;;;;;;;;;;;5093686;28;20367;-67
2023/04/17 02:41:46;;;;;;;;;;;;;;;;;;5094438;28;19908;-67
2023/04/17 02:44:12;;;;;;;;;;;;;;;;;;5094437;28;19912;-67
2023/04/17 02:46:38;;;;;;;;;;;;;;;;;;5093941;28;20007;-67
2023/04/17 02:49:04;;;;;;;;;;;;;;;;;;5094469;28;19912;-67
2023/04/17 02:51:30;;;;;;;;;;;;;;;;;;5094175;28;19908;-66
2023/04/17 02:53:56;;;;;;;;;;;;;;;;;;5094811;28;19915;-66
2023/04/17 02:56:22;;;;;;;;;;;;;;;;;;5076059;28;19912;-66
2023/04/17 02:58:48;;;;;;;;;;;;;;;;;;5093739;28;19908;-66
2023/04/17 03:01:14;;;;;;;;;;;;;;;;;;5094111;28;19951;-66
2023/04/17 03:03:41;;;;;;;;;;;;;;;;;;5094315;28;19909;-66
2023/04/17 03:06:08;;;;;;;;;;;;;;;;;;5093717;28;19916;-66
2023/04/17 03:08:34;;;;;;;;;;;;;;;;;;5094044;28;19958;-66
2023/04/17 03:11:00;;;;;;;;;;;;;;;;;;5093978;28;19915;-66
2023/04/17 03:13:26;;;;;;;;;;;;;;;;;;5093522;28;19930;-66
2023/04/17 03:15:52;;;;;;;;;;;;;;;;;;5093909;28;19912;-66
2023/04/17 03:18:18;;;;;;;;;;;;;;;;;;5093944;28;19908;-66
2023/04/17 03:20:44;;;;;;;;;;;;;;;;;;5093452;28;19963;-66
2023/04/17 03:23:10;;;;;;;;;;;;;;;;;;5093944;28;19954;-66
2023/04/17 03:25:36;;;;;;;;;;;;;;;;;;5093864;28;20295;-66
2023/04/17 03:28:02;;;;;;;;;;;;;;;;;;5093228;28;19931;-66
2023/04/17 03:30:28;;;;;;;;;;;;;;;;;;5093858;28;20287;-66
2023/04/17 03:32:54;;;;;;;;;;;;;;;;;;5075691;28;20343;-66
2023/04/17 03:35:20;;;;;;;;;;;;;;;;;;5093356;28;19965;-66
2023/04/17 03:37:46;;;;;;;;;;;;;;;;;;5093901;28;19961;-66
2023/04/17 03:40:12;;;;;;;;;;;;;;;;;;5094046;28;19908;-66
2023/04/17 03:42:38;;;;;;;;;;;;;;;;;;5093320;28;20400;-66
2023/04/17 03:45:04;;;;;;;;;;;;;;;;;;5093975;28;20062;-66
2023/04/17 03:47:30;;;;;;;;;;;;;;;;;;5093597;28;19908;-66
2023/04/17 03:49:56;;;;;;;;;;;;;;;;;;5093452;28;20307;-66
2023/04/17 03:52:22;;;;;;;;;;;;;;;;;;5097720;28;19954;-66
2023/04/17 03:54:48;;;;;;;;;;;;;;;;;;5097211;28;19908;-66
2023/04/17 03:57:14;;;;;;;;;;;;;;;;;;5097673;28;19915;-66
2023/04/17 03:59:40;;;;;;;;;;;;;;;;;;5097629;28;20011;-66
2023/04/17 04:02:06;;;;;;;;;;;;;;;;;;5097109;28;19908;-66
2023/04/17 04:04:32;;;;;;;;;;;;;;;;;;5097434;28;20382;-66
2023/04/17 04:07:00;;;;;;;;;;;;;;;;;;5079259;28;20400;-66
2023/04/17 04:09:26;;;;;;;;;;;;;;;;;;5096985;28;20292;-66
2023/04/17 04:11:52;;;;;;;;;;;;;;;;;;5097269;28;20037;-66
2023/04/17 04:14:21;;;;;;;;;;;;;;;;;;5097367;28;19987;-66
2023/04/17 04:16:47;;;;;;;;;;;;;;;;;;5096959;28;19932;-66
2023/04/17 04:19:12;;;;;;;;;;;;;;;;;;5079068;28;20275;-66
2023/04/17 04:21:38;;;;;;;;;;;;;;;;;;5097086;28;19912;-66
2023/04/17 04:24:04;;;;;;;;;;;;;;;;;;5096672;28;19908;-66
2023/04/17 04:26:30;;;;;;;;;;;;;;;;;;5097053;28;20079;-66
2023/04/17 04:28:58;;;;;;;;;;;;;;;;;;5096778;28;19920;-66
2023/04/17 04:31:24;;;;;;;;;;;;;;;;;;5096904;28;19954;-66
2023/04/17 04:33:53;;;;;;;;;;;;;;;;;;5096986;28;19916;-66
2023/04/17 04:36:20;;;;;;;;;;;;;;;;;;5078760;28;20420;-67
2023/04/17 04:38:48;;;;;;;;;;;;;;;;;;5078274;28;19915;-66
2023/04/17 04:41:16;;;;;;;;;;;;;;;;;;5096870;28;19992;-66
2023/04/17 04:43:42;;;;;;;;;;;;;;;;;;5096844;28;19909;-66
2023/04/17 04:46:09;;;;;;;;;;;;;;;;;;5096193;28;19957;-66
2023/04/17 04:48:35;;;;;;;;;;;;;;;;;;5096801;28;20417;-66
2023/04/17 04:51:01;;;;;;;;;;;;;;;;;;5096243;28;19911;-66
2023/04/17 04:53:27;;;;;;;;;;;;;;;;;;5096666;28;19950;-66
2023/04/17 04:55:52;;;;;;;;;;;;;;;;;;5096558;28;19915;-66
2023/04/17 04:58:18;;;;;;;;;;;;;;;;;;5096144;28;19916;-66
2023/04/17 05:00:44;;;;;;;;;;;;;;;;;;5096112;28;19909;-67
2023/04/17 05:03:11;;;;;;;;;;;;;;;;;;5078263;28;19994;-66
2023/04/17 05:05:37;;;;;;;;;;;;;;;;;;5095990;28;19908;-66
2023/04/17 05:08:03;;;;;;;;;;;;;;;;;;5096614;28;19908;-67
2023/04/17 05:10:29;;;;;;;;;;;;;;;;;;5078087;28;19923;-66
2023/04/17 05:12:55;;;;;;;;;;;;;;;;;;5077615;28;19908;-66
2023/04/17 05:15:21;;;;;;;;;;;;;;;;;;5096189;28;19912;-66
2023/04/17 05:17:47;;;;;;;;;;;;;;;;;;5096201;28;19955;-66
2023/04/17 05:20:13;;;;;;;;;;;;;;;;;;5095880;28;20347;-66
2023/04/17 05:22:39;;;;;;;;;;;;;;;;;;5096060;28;20284;-66
2023/04/17 05:25:05;;;;;;;;;;;;;;;;;;5096199;28;19908;-67
2023/04/17 05:27:31;;;;;;;;;;;;;;;;;;5095498;28;19935;-66
2023/04/17 05:29:57;;;;;;;;;;;;;;;;;;5095670;28;19920;-67
2023/04/17 05:32:23;;;;;;;;;;;;;;;;;;5095737;28;20024;-66
2023/04/17 05:34:49;;;;;;;;;;;;;;;;;;5095473;28;19908;-67
2023/04/17 05:37:15;;;;;;;;;;;;;;;;;;5096194;28;19912;-67
2023/04/17 05:39:41;;;;;;;;;;;;;;;;;;5095782;28;19912;-66
2023/04/17 05:42:07;;;;;;;;;;;;;;;;;;5077069;28;19919;-68
2023/04/17 05:44:33;;;;;;;;;;;;;;;;;;5095555;28;19912;-67
2023/04/17 05:46:59;;;;;;;;;;;;;;;;;;5095601;28;19915;-67
2023/04/17 05:49:25;;;;;;;;;;;;;;;;;;5095111;28;19923;-66
2023/04/17 05:51:51;;;;;;;;;;;;;;;;;;5095714;28;20383;-66
2023/04/17 05:54:17;;;;;;;;;;;;;;;;;;5076891;28;20383;-66
2023/04/17 05:56:43;;;;;;;;;;;;;;;;;;5095384;28;20427;-66
2023/04/17 05:59:09;;;;;;;;;;;;;;;;;;5077300;28;20026;-67
2023/04/17 06:01:35;;;;;;;;;;;;;;;;;;5095197;28;19908;-67
2023/04/17 06:04:01;;;;;;;;;;;;;;;;;;5095738;28;19919;-67
2023/04/17 06:06:27;;;;;;;;;;;;;;;;;;5095245;28;19915;-67
2023/04/17 06:08:53;;;;;;;;;;;;;;;;;;5094673;28;19935;-67
2023/04/17 06:11:19;;;;;;;;;;;;;;;;;;5095407;28;20280;-67
2023/04/17 06:13:45;;;;;;;;;;;;;;;;;;5094327;28;20315;-67
2023/04/17 06:16:11;;;;;;;;;;;;;;;;;;5094713;28;19912;-66
2023/04/17 06:18:37;;;;;;;;;;;;;;;;;;5095084;28;20374;-67
2023/04/17 06:21:03;;;;;;;;;;;;;;;;;;5094961;28;20384;-67
2023/04/17 06:23:29;;;;;;;;;;;;;;;;;;5094526;28;20355;-68
2023/04/17 06:25:56;;;;;;;;;;;;;;;;;;5076750;28;19908;-67
2023/04/17 06:28:22;;;;;;;;;;;;;;;;;;5094588;28;19947;-66
2023/04/17 06:30:48;;;;;;;;;;;;;;;;;;5094539;28;19956;-67
2023/04/17 06:33:14;;;;;;;;;;;;;;;;;;5094792;28;19908;-67
2023/04/17 06:35:40;;;;;;;;;;;;;;;;;;5076471;28;19999;-67
2023/04/17 06:38:06;;;;;;;;;;;;;;;;;;5076183;28;20026;-67
2023/04/17 06:40:32;;;;;;;;;;;;;;;;;;5094639;28;20276;-68
2023/04/17 06:42:58;;;;;;;;;;;;;;;;;;5094587;28;20326;-65
2023/04/17 06:45:24;;;;;;;;;;;;;;;;;;5094089;28;19951;-66
2023/04/17 06:47:50;;;;;;;;;;;;;;;;;;5094665;28;20269;-66
2023/04/17 06:50:17;;;;;;;;;;;;;;;;;;5094567;28;19916;-67
2023/04/17 06:52:42;;;;;;;;;;;;;;;;;;5094018;28;19934;-67
2023/04/17 06:55:08;;;;;;;;;;;;;;;;;;5094556;28;20271;-67
2023/04/17 06:57:34;;;;;;;;;;;;;;;;;;5093919;28;20280;-66
2023/04/17 07:00:01;;;;;;;;;;;;;;;;;;5094319;28;19908;-66
2023/04/17 07:02:27;;;;;;;;;;;;;;;;;;5094162;28;19930;-66
2023/04/17 07:04:53;;;;;;;;;;;;;;;;;;5093946;28;19908;-66
2023/04/17 07:07:19;;;;;;;;;;;;;;;;;;5094223;28;19915;-67
2023/04/17 07:09:47;;;;;;;;;;;;;;;;;;5094105;28;19923;-68
2023/04/17 07:12:12;;;;;;;;;;;;;;;;;;5093571;28;19916;-66
2023/04/17 07:14:39;;;;;;;;;;;;;;;;;;5094049;28;19912;-66
2023/04/17 07:17:05;;;;;;;;;;;;;;;;;;5094048;28;20303;-68
2023/04/17 07:19:31;;;;;;;;;;;;;;;;;;5093908;28;19912;-67
2023/04/17 07:21:57;;;;;;;;;;;;;;;;;;5094056;28;19915;-68
2023/04/17 07:24:23;;;;;;;;;;;;;;;;;;5075638;28;19908;-65
2023/04/17 07:26:49;;;;;;;;;;;;;;;;;;5093484;28;19915;-67
2023/04/17 07:29:15;;;;;;;;;;;;;;;;;;5075447;28;19924;-67
2023/04/17 07:31:41;;;;;;;;;;;;;;;;;;5093859;28;19913;-67
2023/04/17 07:34:07;;;;;;;;;;;;;;;;;;5093484;28;19908;-65
2023/04/17 07:36:33;;;;;;;;;;;;;;;;;;5093630;28;19959;-65
2023/04/17 07:38:59;;;;;;;;;;;;;;;;;;5093728;28;20296;-66
2023/04/17 07:41:25;;;;;;;;;;;;;;;;;;5093335;28;19908;-67
2023/04/17 07:43:51;;;;;;;;;;;;;;;;;;5093732;28;19913;-66
2023/04/17 07:46:17;;;;;;;;;;;;;;;;;;5093715;28;19915;-66
2023/04/17 07:48:43;;;;;;;;;;;;;;;;;;5075133;28;20053;-66
2023/04/17 07:51:09;;;;;;;;;;;;;;;;;;5093669;28;19948;-68
2023/04/17 07:53:36;;;;;;;;;;;;;;;;;;5093731;28;19912;-67
2023/04/17 07:56:02;;;;;;;;;;;;;;;;;;5075103;28;19908;-67
2023/04/17 07:58:28;;;;;;;;;;;;;;;;;;5093608;28;19961;-67
2023/04/17 08:00:54;;;;;;;;;;;;;;;;;;5075017;28;19961;-67
2023/04/17 08:03:23;;;;;;;;;;;;;;;;;;5075475;28;20353;-67
2023/04/17 08:05:50;;;;;;;;;;;;;;;;;;5093521;28;19912;-66
2023/04/17 08:08:16;;;;;;;;;;;;;;;;;;5075133;28;19912;-66
2023/04/17 08:10:42;;;;;;;;;;;;;;;;;;5093470;28;20020;-67
2023/04/17 08:13:08;;;;;;;;;;;;;;;;;;5093552;28;20002;-66
2023/04/17 08:15:39;;;;;;;;;;;;;;;;;;5092906;28;19908;-66
2023/04/17 08:18:05;;;;;;;;;;;;;;;;;;5075684;28;20352;-66
2023/04/17 08:20:32;;;;;;;;;;;;;;;;;;5093638;28;19920;-65
2023/04/17 08:22:58;;;;;;;;;;;;;;;;;;5092971;28;19915;-67
2023/04/17 08:25:24;;;;;;;;;;;;;;;;;;5075261;28;19908;-66
2023/04/17 08:28:02;;;;;;;;;;;;;;;;;;5174233;27;19911;-67
2023/04/17 08:30:28;;;;;;;;;;;;;;;;;;5173278;27;19911;-66
2023/04/17 08:32:56;;;;;;;;;;;;;;;;;;5173595;27;20006;-67
2023/04/17 08:38:30;;;;;;;;;;;;;;;;;;5091813;27;19922;-67
2023/04/17 08:40:55;;;;;;;;;;;;;;;;;;5091331;28;19958;-66
2023/04/17 08:43:21;;;;;;;;;;;;;;;;;;5090813;28;19908;-67
2023/04/17 08:45:52;;;;;;;;;;;;;;;;;;5089955;28;19908;-68
2023/04/17 08:48:18;;;;;;;;;;;;;;;;;;5091357;28;19909;-65
2023/04/17 08:50:44;;;;;;;;;;;;;;;;;;5090873;28;20000;-66
2023/04/17 08:53:10;;;;;;;;;;;;;;;;;;5091454;28;19908;-67
2023/04/17 09:00:14;;;;;;;;;;;;;;;;;;5091456;28;19934;-65
2023/04/17 09:02:40;;;;;;;;;;;;;;;;;;5091423;28;19966;-67
2023/04/17 09:05:07;;;;;;;;;;;;;;;;;;5090768;28;19908;-67
2023/04/17 09:07:33;;;;;;;;;;;;;;;;;;5091399;28;19944;-67
2023/04/17 09:09:58;;;;;;;;;;;;;;;;;;5089849;28;19908;-66
2023/04/17 09:12:24;;;;;;;;;;;;;;;;;;5090695;28;19916;-67
2023/04/17 09:14:50;;;;;;;;;;;;;;;;;;5090916;28;19954;-67
2023/04/17 09:17:16;;;;;;;;;;;;;;;;;;5090729;28;19915;-67
2023/04/17 09:20:07;;;;;;;;;;;;;;;;;;5091011;27;19913;-66
2023/04/17 09:22:33;;;;;;;;;;;;;;;;;;5089933;28;19912;-66
2023/04/17 09:29:00;;;;;;;;;;;;;;;;;;5112179;27;19912;-66
2023/04/17 09:31:26;;;;;;;;;;;;;;;;;;5110246;28;20447;-65
2023/04/17 09:33:52;;;;;;;;;;;;;;;;;;5111154;28;19939;-66
2023/04/17 09:36:18;;;;;;;;;;;;;;;;;;5111452;28;19912;-66
2023/04/17 09:39:23;;;;;;;;;;;;;;;;;;5091113;27;20406;-66
2023/04/17 09:41:49;;;;;;;;;;;;;;;;;;5091308;28;19913;-67
2023/04/17 09:44:15;;;;;;;;;;;;;;;;;;5091147;28;19970;-67
2023/04/17 09:48:28;;;;;;;;;;;;;;;;;;5090789;27;19912;-67
2023/04/17 09:50:55;;;;;;;;;;;;;;;;;;5091565;28;20447;-67
2023/04/17 09:55:05;;;;;;;;;;;;;;;;;;5091139;27;19923;-66
2023/04/17 09:59:32;;;;;;;;;;;;;;;;;;5091861;28;20299;-67
2023/04/17 10:01:58;;;;;;;;;;;;;;;;;;5091209;28;20007;-67
2023/04/17 10:04:24;;;;;;;;;;;;;;;;;;5091877;28;20059;-67
2023/04/17 10:08:58;;;;;;;;;;;;;;;;;;5111414;27;19912;-67
2023/04/17 10:13:29;;;;;;;;;;;;;;;;;;5092080;27;19922;-66
2023/04/17 10:16:56;;;;;;;;;;;;;;;;;;5092188;27;19916;-67
2023/04/17 10:21:22;;;;;;;;;;;;;;;;;;5091474;27;19917;-67
2023/04/17 10:23:48;;;;;;;;;;;;;;;;;;5091151;28;20261;-67
2023/04/17 10:29:23;;;;;;;;;;;;;;;;;;5091445;27;19918;-66
2023/04/17 10:31:49;;;;;;;;;;;;;;;;;;5091478;28;19991;-67
2023/04/17 10:35:35;;;;;;;;;;;;;;;;;;5091436;27;19912;-66
2023/04/17 10:38:01;;;;;;;;;;;;;;;;;;5091162;28;19926;-67
2023/04/17 10:40:27;;;;;;;;;;;;;;;;;;5091551;28;20006;-66
2023/04/17 10:44:15;;;;;;;;;;;;;;;;;;5131769;27;19911;-66
2023/04/17 10:46:41;;;;;;;;;;;;;;;;;;5132321;28;19918;-66
2023/04/17 10:49:07;;;;;;;;;;;;;;;;;;5132068;28;19934;-66
2023/04/17 10:51:33;;;;;;;;;;;;;;;;;;5131711;28;19918;-66
2023/04/17 10:53:59;;;;;;;;;;;;;;;;;;5133310;28;19908;-66
2023/04/17 10:56:25;;;;;;;;;;;;;;;;;;5131850;28;19907;-67
2023/04/17 11:01:06;;;;;;;;;;;;;;;;;;5092359;27;19922;-66
2023/04/17 11:03:32;;;;;;;;;;;;;;;;;;5090418;28;19991;-67
2023/04/17 11:05:58;;;;;;;;;;;;;;;;;;5091545;28;19999;-66
2023/04/17 11:08:24;;;;;;;;;;;;;;;;;;5089966;28;19908;-66
2023/04/17 11:11:05;;;;;;;;;;;;;;;;;;5091698;27;20295;-66
2023/04/17 11:13:31;;;;;;;;;;;;;;;;;;5092095;28;19934;-67
2023/04/17 11:15:57;;;;;;;;;;;;;;;;;;5091374;28;20004;-68
2023/04/17 11:18:23;;;;;;;;;;;;;;;;;;5090914;28;19912;-67
2023/04/17 11:20:49;;;;;;;;;;;;;;;;;;5091456;28;20392;-67
2023/04/17 11:27:19;;;;;;;;;;;;;;;;;;5071299;28;19923;-66
2023/04/17 11:32:04;;;;;;;;;;;;;;;;;;5091562;27;19931;-66
2023/04/17 11:34:30;;;;;;;;;;;;;;;;;;5091236;28;19912;-66
2023/04/17 11:36:56;;;;;;;;;;;;;;;;;;5091180;28;20291;-65
2023/04/17 11:39:57;;;;;;;;;;;;;;;;;;5091022;27;19923;-67
2023/04/17 11:42:23;;;;;;;;;;;;;;;;;;5091398;28;20343;-66
2023/04/17 11:44:49;;;;;;;;;;;;;;;;;;5091161;28;19908;-66
2023/04/17 11:48:28;;;;;;;;;;;;;;;;;;5091478;27;19916;-65
2023/04/17 11:52:35;;;;;;;;;;;;;;;;;;5092058;28;19923;-66
2023/04/17 12:00:33;;;;;;;;;;;;;;;;;;5091107;27;19917;-67
2023/04/17 12:02:59;;;;;;;;;;;;;;;;;;5091463;28;20011;-67
2023/04/17 12:05:25;;;;;;;;;;;;;;;;;;5091110;28;20348;-67
2023/04/17 12:07:51;;;;;;;;;;;;;;;;;;5091041;28;19955;-67
2023/04/17 12:10:17;;;;;;;;;;;;;;;;;;5090964;28;19966;-65
2023/04/17 12:13:03;;;;;;;;;;;;;;;;;;5091369;28;19916;-65
2023/04/17 12:15:29;;;;;;;;;;;;;;;;;;5090907;28;20003;-67
2023/04/17 12:18:19;;;;;;;;;;;;;;;;;;5091622;27;20295;-66
2023/04/17 12:20:46;;;;;;;;;;;;;;;;;;5089969;28;19995;-66
2023/04/17 12:23:12;;;;;;;;;;;;;;;;;;5090776;28;19916;-67
2023/04/17 12:25:38;;;;;;;;;;;;;;;;;;5089868;28;19908;-67
2023/04/17 12:28:04;;;;;;;;;;;;;;;;;;5090679;28;19935;-66
2023/04/17 12:30:30;;;;;;;;;;;;;;;;;;5091073;28;20003;-66
2023/04/17 12:33:45;;;;;;;;;;;;;;;;;;5091450;28;19923;-66
2023/04/17 12:36:11;;;;;;;;;;;;;;;;;;5091087;28;19913;-66
2023/04/17 12:38:37;;;;;;;;;;;;;;;;;;5091085;28;19975;-67
2023/04/17 12:41:03;;;;;;;;;;;;;;;;;;5091239;28;19908;-66
2023/04/17 12:43:29;;;;;;;;;;;;;;;;;;5090996;28;19909;-67
2023/04/17 12:45:57;;;;;;;;;;;;;;;;;;5091090;28;19912;-67
2023/04/17 12:48:23;;;;;;;;;;;;;;;;;;5090942;28;19909;-66
2023/04/17 12:50:48;;;;;;;;;;;;;;;;;;5090397;28;19908;-66
2023/04/17 12:53:14;;;;;;;;;;;;;;;;;;5089453;28;20030;-66
2023/04/17 12:55:40;;;;;;;;;;;;;;;;;;5090832;28;19908;-66
2023/04/17 12:58:07;;;;;;;;;;;;;;;;;;5090686;28;20063;-67
2023/04/17 13:01:45;;;;;;;;;;;;;;;;;;5091639;27;19917;-66
2023/04/17 13:04:39;;;;;;;;;;;;;;;;;;5152539;27;19922;-65
2023/04/17 13:07:05;;;;;;;;;;;;;;;;;;5152924;27;20291;-67
2023/04/17 13:09:31;;;;;;;;;;;;;;;;;;5152819;27;19907;-68
2023/04/17 13:11:57;;;;;;;;;;;;;;;;;;5152218;27;19907;-67
2023/04/17 13:14:23;;;;;;;;;;;;;;;;;;5152815;27;19998;-67
2023/04/17 13:16:49;;;;;;;;;;;;;;;;;;5152843;27;20387;-67
2023/04/17 13:19:15;;;;;;;;;;;;;;;;;;5152215;27;19907;-66
2023/04/17 13:21:41;;;;;;;;;;;;;;;;;;5152710;27;19915;-66
2023/04/17 13:25:06;;;;;;;;;;;;;;;;;;5070753;28;19923;-66
2023/04/17 13:27:32;;;;;;;;;;;;;;;;;;5071073;28;20347;-66
2023/04/17 13:29:58;;;;;;;;;;;;;;;;;;5071178;28;19987;-67
2023/04/17 13:32:24;;;;;;;;;;;;;;;;;;5070522;28;19916;-67
2023/04/17 13:34:50;;;;;;;;;;;;;;;;;;5071045;28;19908;-67
2023/04/17 13:37:42;;;;;;;;;;;;;;;;;;5092139;27;19916;-65
2023/04/17 13:40:11;;;;;;;;;;;;;;;;;;5090827;28;20349;-67
2023/04/17 13:42:37;;;;;;;;;;;;;;;;;;5091332;28;20003;-67
2023/04/17 13:45:03;;;;;;;;;;;;;;;;;;5091322;28;19978;-67
2023/04/17 13:47:29;;;;;;;;;;;;;;;;;;5090782;28;19912;-67
2023/04/17 13:49:55;;;;;;;;;;;;;;;;;;5091172;28;19996;-67
2023/04/17 13:52:21;;;;;;;;;;;;;;;;;;5091021;28;20381;-67
2023/04/17 13:54:47;;;;;;;;;;;;;;;;;;5090593;28;20320;-67
2023/04/17 13:57:19;;;;;;;;;;;;;;;;;;5090894;28;19916;-66
2023/04/17 13:59:45;;;;;;;;;;;;;;;;;;5090663;28;19966;-67
2023/04/17 14:02:11;;;;;;;;;;;;;;;;;;5089591;28;20365;-67
2023/04/17 14:04:37;;;;;;;;;;;;;;;;;;5089525;28;19909;-67
2023/04/17 14:07:03;;;;;;;;;;;;;;;;;;5088959;28;20050;-68
2023/04/17 14:09:29;;;;;;;;;;;;;;;;;;5090701;28;19912;-67
2023/04/17 14:11:55;;;;;;;;;;;;;;;;;;5090587;28;19916;-69
2023/04/17 14:14:21;;;;;;;;;;;;;;;;;;5090204;28;19924;-66
2023/04/17 14:16:49;;;;;;;;;;;;;;;;;;5091036;28;20357;-68
2023/04/17 14:19:15;;;;;;;;;;;;;;;;;;5090479;28;19908;-67
2023/04/17 14:21:41;;;;;;;;;;;;;;;;;;5090107;28;19954;-67
2023/04/17 14:24:07;;;;;;;;;;;;;;;;;;5089201;28;19908;-67
2023/04/17 14:26:33;;;;;;;;;;;;;;;;;;5090534;28;19915;-67
2023/04/17 14:28:59;;;;;;;;;;;;;;;;;;5090283;28;20284;-67
2023/04/17 14:31:25;;;;;;;;;;;;;;;;;;5090325;28;19908;-67
2023/04/17 14:33:51;;;;;;;;;;;;;;;;;;5090319;28;19933;-67
2023/04/17 14:36:17;;;;;;;;;;;;;;;;;;5098682;28;19920;-67
2023/04/17 14:38:47;;;;;;;;;;;;;;;;;;5110550;28;19908;-67
2023/04/17 14:41:13;;;;;;;;;;;;;;;;;;5110861;28;20368;-67
2023/04/17 14:43:39;;;;;;;;;;;;;;;;;;5110102;28;19908;-68
2023/04/17 14:46:05;;;;;;;;;;;;;;;;;;5110461;28;19916;-67
2023/04/17 14:48:31;;;;;;;;;;;;;;;;;;5099821;28;19947;-67
2023/04/17 14:50:58;;;;;;;;;;;;;;;;;;5096327;28;20283;-66
2023/04/17 14:53:24;;;;;;;;;;;;;;;;;;5096750;28;19914;-67
2023/04/17 14:55:51;;;;;;;;;;;;;;;;;;5078124;28;20015;-67
2023/04/17 14:58:17;;;;;;;;;;;;;;;;;;5096683;28;19908;-68
2023/04/17 15:00:43;;;;;;;;;;;;;;;;;;5096553;28;20410;-68
2023/04/17 15:03:09;;;;;;;;;;;;;;;;;;5096165;28;20356;-67
2023/04/17 15:05:35;;;;;;;;;;;;;;;;;;5096563;28;19908;-68
2023/04/17 15:08:01;;;;;;;;;;;;;;;;;;5078417;28;19908;-67
2023/04/17 15:10:27;;;;;;;;;;;;;;;;;;5096066;28;19908;-68
2023/04/17 15:12:58;;;;;;;;;;;;;;;;;;5096384;28;19915;-66
2023/04/17 15:15:24;;;;;;;;;;;;;;;;;;5078118;28;19947;-67
2023/04/17 15:17:51;;;;;;;;;;;;;;;;;;5077735;28;19924;-67
2023/04/17 15:20:17;;;;;;;;;;;;;;;;;;5096236;28;19908;-67
2023/04/17 15:22:44;;;;;;;;;;;;;;;;;;5096110;28;19931;-69
2023/04/17 15:25:10;;;;;;;;;;;;;;;;;;5095795;28;19912;-67
2023/04/17 15:27:36;;;;;;;;;;;;;;;;;;5096033;28;19954;-67
2023/04/17 15:30:05;;;;;;;;;;;;;;;;;;5096027;28;19912;-67
2023/04/17 15:32:31;;;;;;;;;;;;;;;;;;5095716;28;19908;-67
2023/04/17 15:34:57;;;;;;;;;;;;;;;;;;5095830;28;19908;-67
2023/04/17 15:37:23;;;;;;;;;;;;;;;;;;5077597;28;19971;-66
2023/04/17 15:39:49;;;;;;;;;;;;;;;;;;5095485;28;19908;-67
2023/04/17 15:42:15;;;;;;;;;;;;;;;;;;5095780;28;19908;-67
2023/04/17 15:44:41;;;;;;;;;;;;;;;;;;5095700;28;19908;-67
2023/04/17 15:47:08;;;;;;;;;;;;;;;;;;5095366;28;19999;-67
2023/04/17 15:49:34;;;;;;;;;;;;;;;;;;5095634;28;19908;-68
2023/04/17 15:52:00;;;;;;;;;;;;;;;;;;5095140;28;20379;-67
2023/04/17 15:54:26;;;;;;;;;;;;;;;;;;5095560;28;19908;-68
2023/04/17 15:56:52;;;;;;;;;;;;;;;;;;5095601;28;19920;-66
2023/04/17 15:59:18;;;;;;;;;;;;;;;;;;5093908;28;19930;-67
2023/04/17 16:01:44;;;;;;;;;;;;;;;;;;5095329;28;19955;-68
2023/04/17 16:04:10;;;;;;;;;;;;;;;;;;5077082;28;19915;-67
2023/04/17 16:06:36;;;;;;;;;;;;;;;;;;5095068;28;19908;-67
2023/04/17 16:09:02;;;;;;;;;;;;;;;;;;5077062;28;20364;-67
2023/04/17 16:11:28;;;;;;;;;;;;;;;;;;5095189;28;19908;-66
2023/04/17 16:13:55;;;;;;;;;;;;;;;;;;5094714;28;19915;-67
2023/04/17 16:16:21;;;;;;;;;;;;;;;;;;5095255;28;19916;-67
2023/04/17 16:18:46;;;;;;;;;;;;;;;;;;5095326;28;19953;-67
2023/04/17 16:21:13;;;;;;;;;;;;;;;;;;5094678;28;19917;-67
2023/04/17 16:23:39;;;;;;;;;;;;;;;;;;5095106;28;19908;-67
2023/04/17 16:26:05;;;;;;;;;;;;;;;;;;5094866;28;19915;-66
2023/04/17 16:28:31;;;;;;;;;;;;;;;;;;5094507;28;19914;-66
2023/04/17 16:30:56;;;;;;;;;;;;;;;;;;5094810;28;20338;-67
2023/04/17 16:33:22;;;;;;;;;;;;;;;;;;5094740;28;20349;-66
2023/04/17 16:35:48;;;;;;;;;;;;;;;;;;5094035;28;20354;-66
2023/04/17 16:38:14;;;;;;;;;;;;;;;;;;5094692;28;19908;-67
2023/04/17 16:40:40;;;;;;;;;;;;;;;;;;5094688;28;19908;-67
2023/04/17 16:43:07;;;;;;;;;;;;;;;;;;5094167;28;19908;-67
2023/04/17 16:45:33;;;;;;;;;;;;;;;;;;5094570;28;20374;-68
2023/04/17 16:47:59;;;;;;;;;;;;;;;;;;5076265;28;20003;-66
2023/04/17 16:50:25;;;;;;;;;;;;;;;;;;5094015;28;19908;-66
2023/04/17 16:52:51;;;;;;;;;;;;;;;;;;5094370;28;19908;-66
2023/04/17 16:55:17;;;;;;;;;;;;;;;;;;5094203;28;20226;-66
2023/04/17 16:57:44;;;;;;;;;;;;;;;;;;5094827;28;19939;-67
2023/04/17 17:00:10;;;;;;;;;;;;;;;;;;5094284;28;19908;-67
2023/04/17 17:02:36;;;;;;;;;;;;;;;;;;5094952;28;19908;-66
2023/04/17 17:05:02;;;;;;;;;;;;;;;;;;5076104;28;19912;-67
2023/04/17 17:07:28;;;;;;;;;;;;;;;;;;5094275;28;19916;-68
2023/04/17 17:09:54;;;;;;;;;;;;;;;;;;5093738;28;19951;-66
2023/04/17 17:12:20;;;;;;;;;;;;;;;;;;5094351;28;19961;-68
2023/04/17 17:14:46;;;;;;;;;;;;;;;;;;5094212;28;19974;-68
2023/04/17 17:17:11;;;;;;;;;;;;;;;;;;5093596;28;20014;-67
2023/04/17 17:19:37;;;;;;;;;;;;;;;;;;5075932;28;20340;-67
2023/04/17 17:22:03;;;;;;;;;;;;;;;;;;5075787;28;20015;-67
2023/04/17 17:24:30;;;;;;;;;;;;;;;;;;5093577;28;20479;-67
2023/04/17 17:26:56;;;;;;;;;;;;;;;;;;5075801;28;20280;-68
2023/04/17 17:29:22;;;;;;;;;;;;;;;;;;5093943;28;19912;-66
2023/04/17 17:31:48;;;;;;;;;;;;;;;;;;5093553;28;19915;-67